TimeCDT,TemperatureF,Dew PointF,Humidity,Sea Level PressureIn,VisibilityMPH,Wind Direction,Wind SpeedMPH,Gust SpeedMPH,PrecipitationIn,Events,Conditions,WindDirDegrees,DateUTC
12:15 AM,73.4,66.2,78,30.05,10.0,ENE,5.8,-,N/A,,Clear,60,2013-08-20 05:15:00
12:36 AM,69.8,66.2,88,30.05,10.0,NE,6.9,-,N/A,,Clear,50,2013-08-20 05:36:00
12:55 AM,69.8,66.2,88,30.05,10.0,NNE,4.6,-,N/A,,Clear,20,2013-08-20 05:55:00
1:15 AM,69.8,64.4,83,30.05,10.0,North,3.5,-,N/A,,Clear,350,2013-08-20 06:15:00
1:35 AM,69.8,64.4,83,30.04,10.0,North,5.8,-,N/A,,Clear,360,2013-08-20 06:35:00
1:55 AM,69.8,64.4,83,30.04,10.0,North,5.8,-,N/A,,Clear,350,2013-08-20 06:55:00
2:15 AM,68.0,64.4,88,30.04,10.0,North,5.8,-,N/A,,Clear,350,2013-08-20 07:15:00
2:35 AM,68.0,64.4,88,30.04,10.0,North,5.8,-,N/A,,Clear,350,2013-08-20 07:35:00
2:56 AM,68.0,64.4,88,30.04,10.0,North,3.5,-,N/A,,Clear,350,2013-08-20 07:56:00
3:15 AM,68.0,64.4,88,30.05,10.0,North,4.6,-,N/A,,Clear,350,2013-08-20 08:15:00
3:35 AM,68.0,64.4,88,30.05,10.0,NNW,3.5,-,N/A,,Clear,340,2013-08-20 08:35:00
3:55 AM,68.0,64.4,88,30.05,10.0,North,-9999.0,-,N/A,,Clear,0,2013-08-20 08:55:00
4:15 AM,66.2,64.4,94,30.05,10.0,North,5.8,-,N/A,,Clear,360,2013-08-20 09:15:00
4:35 AM,66.2,64.4,94,30.05,10.0,North,4.6,-,N/A,,Clear,350,2013-08-20 09:35:00
4:56 AM,66.2,64.4,94,30.05,10.0,North,4.6,-,N/A,,Clear,360,2013-08-20 09:56:00
5:15 AM,66.2,64.4,94,30.05,10.0,North,5.8,-,N/A,,Clear,350,2013-08-20 10:15:00
5:35 AM,66.2,64.4,94,30.05,10.0,NNW,4.6,-,N/A,,Clear,340,2013-08-20 10:35:00
5:55 AM,66.2,64.4,94,30.06,10.0,North,5.8,-,N/A,,Clear,350,2013-08-20 10:55:00
6:15 AM,66.2,64.4,94,30.07,10.0,North,4.6,-,N/A,,Clear,350,2013-08-20 11:15:00
6:35 AM,66.2,64.4,94,30.07,6.0,Calm,Calm,-,N/A,,Clear,0,2013-08-20 11:35:00
6:55 AM,66.2,64.4,94,30.08,7.0,North,5.8,-,N/A,,Clear,350,2013-08-20 11:55:00
7:15 AM,66.2,64.4,94,30.08,6.0,North,4.6,-,N/A,,Clear,10,2013-08-20 12:15:00
7:35 AM,69.8,66.2,88,30.08,8.0,North,4.6,-,N/A,,Clear,360,2013-08-20 12:35:00
7:55 AM,69.8,66.2,88,30.09,9.0,North,6.9,-,N/A,,Clear,360,2013-08-20 12:55:00
8:15 AM,71.6,68.0,88,30.09,9.0,North,6.9,-,N/A,,Clear,10,2013-08-20 13:15:00
8:35 AM,71.6,69.8,94,30.10,10.0,NE,3.5,-,N/A,,Clear,50,2013-08-20 13:35:00
8:55 AM,73.4,69.8,88,30.10,10.0,ENE,4.6,-,N/A,,Clear,60,2013-08-20 13:55:00
9:15 AM,75.2,69.8,83,30.10,10.0,North,4.6,-,N/A,,Clear,10,2013-08-20 14:15:00
9:35 AM,77.0,69.8,78,30.11,10.0,Calm,Calm,-,N/A,,Clear,0,2013-08-20 14:35:00
9:55 AM,78.8,71.6,78,30.11,10.0,Calm,Calm,-,N/A,,Clear,0,2013-08-20 14:55:00
10:15 AM,80.6,71.6,74,30.11,10.0,Calm,Calm,-,N/A,,Clear,0,2013-08-20 15:15:00
10:35 AM,80.6,71.6,74,30.11,10.0,Calm,Calm,-,N/A,,Clear,0,2013-08-20 15:35:00
10:55 AM,82.4,69.8,66,30.11,10.0,North,3.5,-,N/A,,Clear,360,2013-08-20 15:55:00
11:15 AM,82.4,69.8,66,30.11,10.0,North,4.6,-,N/A,,Clear,10,2013-08-20 16:15:00
11:35 AM,84.2,69.8,62,30.11,10.0,NNW,4.6,-,N/A,,Partly Cloudy,340,2013-08-20 16:35:00
11:55 AM,84.2,69.8,62,30.11,10.0,NNE,3.5,-,N/A,,Partly Cloudy,30,2013-08-20 16:55:00
12:15 PM,84.2,66.2,55,30.11,10.0,NW,3.5,-,N/A,,Clear,310,2013-08-20 17:15:00
12:35 PM,84.2,66.2,55,30.10,10.0,North,4.6,-,N/A,,Partly Cloudy,350,2013-08-20 17:35:00
12:56 PM,86.0,66.2,51,30.09,10.0,Calm,Calm,-,N/A,,Partly Cloudy,0,2013-08-20 17:56:00
1:15 PM,87.8,66.2,49,30.09,10.0,North,6.9,-,N/A,,Clear,350,2013-08-20 18:15:00
1:35 PM,87.8,66.2,49,30.08,10.0,NNE,6.9,-,N/A,,Clear,20,2013-08-20 18:35:00
1:56 PM,87.8,66.2,49,30.08,10.0,WNW,3.5,-,N/A,,Clear,300,2013-08-20 18:56:00
2:15 PM,89.6,64.4,43,30.07,10.0,NW,3.5,-,N/A,,Partly Cloudy,320,2013-08-20 19:15:00
2:35 PM,87.8,64.4,46,30.07,10.0,NNW,4.6,-,N/A,,Clear,340,2013-08-20 19:35:00
2:56 PM,87.8,66.2,49,30.06,10.0,NE,3.5,-,N/A,,Scattered Clouds,40,2013-08-20 19:56:00
3:15 PM,87.8,64.4,46,30.05,10.0,ENE,3.5,-,N/A,,Partly Cloudy,60,2013-08-20 20:15:00
3:35 PM,87.8,64.4,46,30.05,10.0,East,4.6,-,N/A,,Scattered Clouds,80,2013-08-20 20:35:00
3:55 PM,87.8,64.4,46,30.04,10.0,SSE,4.6,-,N/A,,Partly Cloudy,160,2013-08-20 20:55:00
4:15 PM,87.8,64.4,46,30.04,10.0,NNW,3.5,-,N/A,,Clear,340,2013-08-20 21:15:00
4:35 PM,89.6,64.4,43,30.04,10.0,North,3.5,-,N/A,,Clear,360,2013-08-20 21:35:00
4:55 PM,87.8,64.4,46,30.04,10.0,Calm,Calm,-,N/A,,Clear,0,2013-08-20 21:55:00
5:15 PM,87.8,64.4,46,30.04,10.0,East,3.5,-,N/A,,Clear,80,2013-08-20 22:15:00
5:35 PM,89.6,64.4,43,30.04,10.0,SSE,3.5,-,N/A,,Clear,160,2013-08-20 22:35:00
5:55 PM,87.8,60.8,40,30.04,9.0,SE,3.5,-,N/A,,Clear,130,2013-08-20 22:55:00
6:16 PM,87.8,60.8,40,30.04,10.0,SE,4.6,-,N/A,,Clear,140,2013-08-20 23:16:00
6:35 PM,87.8,60.8,40,30.04,10.0,Calm,Calm,-,N/A,,Clear,0,2013-08-20 23:35:00
6:55 PM,87.8,62.6,43,30.04,10.0,East,3.5,-,N/A,,Clear,100,2013-08-20 23:55:00
7:15 PM,87.8,62.6,43,30.04,10.0,ESE,3.5,-,N/A,,Clear,110,2013-08-21 00:15:00
7:35 PM,86.0,62.6,45,30.04,10.0,East,3.5,-,N/A,,Clear,100,2013-08-21 00:35:00
7:55 PM,84.2,64.4,51,30.04,10.0,NNE,4.6,-,N/A,,Clear,20,2013-08-21 00:55:00
8:15 PM,80.6,68.0,65,30.05,10.0,NE,3.5,-,N/A,,Clear,50,2013-08-21 01:15:00
8:35 PM,82.4,66.2,58,30.05,10.0,ENE,5.8,-,N/A,,Clear,70,2013-08-21 01:35:00
8:55 PM,82.4,66.2,58,30.06,10.0,East,4.6,-,N/A,,Clear,80,2013-08-21 01:55:00
9:15 PM,82.4,68.0,62,30.07,10.0,East,3.5,-,N/A,,Clear,80,2013-08-21 02:15:00
9:36 PM,80.6,69.8,70,30.07,10.0,East,4.6,-,N/A,,Clear,80,2013-08-21 02:36:00
9:55 PM,80.6,69.8,70,30.07,10.0,East,5.8,-,N/A,,Clear,80,2013-08-21 02:55:00
10:15 PM,80.6,69.8,70,30.08,10.0,ENE,3.5,-,N/A,,Clear,70,2013-08-21 03:15:00
10:35 PM,75.2,69.8,83,30.08,10.0,NE,4.6,-,N/A,,Clear,50,2013-08-21 03:35:00
10:55 PM,73.4,69.8,88,30.08,10.0,NE,5.8,-,N/A,,Clear,50,2013-08-21 03:55:00
11:35 PM,75.2,69.8,83,30.07,10.0,ENE,5.8,-,N/A,,Clear,60,2013-08-21 04:35:00
11:56 PM,73.4,68.0,83,30.07,10.0,NE,6.9,-,N/A,,Clear,40,2013-08-21 04:56:00